Latest Weather Observations for Gingin Airport

IDW60801

Issued at 10:03 am WST Tuesday 22 September 2020 (issued every 10 minutes, with the page automatically refreshed every 10 minutes)

About weather observations | Map of weather stations | Latest weather observations for WA | Other Formats
Station Details ID: 009178 Name: GINGIN AERO Lat: -31.46 Lon: 115.86 Height: 73.0 m
Data from the previous 72 hours. | See also: Recent months at Gingin Airport
Date/Time
WST
Temp
°C
App
Temp
°C
Dew
Point
°C
Rel
Hum
%
Delta-T
°C
Wind Press
QNH
hPa
Press
MSL
hPa
Rain since
9am
mm
Dir  Spd
km/h
Gust
km/h
Spd
kts
Gust
kts
22/10:00am 16.9 16.6 12.6 76 2.4 S 6 9 3 5 1024.5 1024.5 0.2
22/09:30am 15.0 14.5 12.5 85 1.4 NNW 7 11 4 6 1024.7 1024.7 0.2
22/09:00am 15.5 14.0 11.9 79 1.9 NW 11 19 6 10 1024.7 1024.7 0.2
22/08:30am 14.5 13.4 12.0 85 1.4 NW 9 13 5 7 1024.5 1024.5 0.2
22/08:00am 13.4 11.9 12.0 91 0.8 N 11 15 6 8 1024.1 1024.1 0.2
22/07:30am 11.4 10.3 10.5 94 0.5 N 7 9 4 5 1023.9 1023.9 0.2
22/07:00am 10.0 8.1 9.1 94 0.4 N 9 11 5 6 1023.6 1023.6 0.2
22/06:30am 9.0 6.9 8.1 94 0.4 N 9 13 5 7 1023.3 1023.3 0.2
22/06:00am 8.8 6.6 7.9 94 0.4 N 9 11 5 6 1023.1 1023.1 0.2
22/05:30am 9.2 6.7 8.3 94 0.4 N 11 15 6 8 1022.9 1022.9 0.2
22/05:00am 9.2 6.7 8.3 94 0.4 N 11 13 6 7 1022.7 1022.7 0.2
22/04:30am 8.7 6.9 7.8 94 0.4 N 7 9 4 5 1022.5 1022.5 0.2
22/04:00am 8.9 6.7 8.0 94 0.4 N 9 11 5 6 1022.4 1022.4 0.2
22/03:30am 9.3 7.8 8.4 94 0.4 N 6 9 3 5 1022.5 1022.5 0.2
22/03:00am 9.1 6.6 8.2 94 0.4 N 11 13 6 7 1022.5 1022.5 0.2
22/02:30am 8.7 6.5 7.8 94 0.4 N 9 13 5 7 1022.6 1022.6 0.2
22/02:00am 8.5 6.2 7.6 94 0.4 N 9 11 5 6 1022.5 1022.5 0.2
22/01:30am 6.8 4.5 5.7 93 0.5 N 7 9 4 5 1022.7 1022.7 0.2
22/01:00am 6.7 5.7 5.5 92 0.5 CALM 0 0 0 0 1022.7 1022.7 0.0
22/12:30am 8.4 6.4 7.3 93 0.5 N 7 9 4 5 1022.7 1022.7 0.0
22/12:00am 8.6 6.3 7.4 92 0.6 NNE 9 9 5 5 1022.7 1022.7 0.0
 
Date/Time
WST
Temp
°C
App
Temp
°C
Dew
Point
°C
Rel
Hum
%
Delta-T
°C
Wind Press
QNH
hPa
Press
MSL
hPa
Rain since
9am
mm
Dir  Spd
km/h
Gust
km/h
Spd
kts
Gust
kts
21/11:30pm 9.2 7.6 8.0 92 0.6 E 6 7 3 4 1022.8 1022.8 0.0
21/11:00pm 10.1 8.7 8.7 91 0.7 ENE 6 7 3 4 1022.9 1022.9 0.0
21/10:30pm 9.4 7.2 7.8 90 0.8 E 9 9 5 5 1023.1 1023.1 0.0
21/10:00pm 11.5 11.5 9.8 89 0.9 CALM 0 0 0 0 1023.3 1023.3 0.0
21/09:30pm 12.0 10.9 10.1 88 1.0 NW 6 7 3 4 1023.4 1023.4 0.0
21/09:00pm 12.4 10.1 10.3 87 1.1 SSW 13 20 7 11 1023.9 1023.9 0.0
21/08:30pm 12.6 11.5 9.8 83 1.4 SSE 6 7 3 4 1023.9 1023.9 0.0
21/08:00pm 12.9 11.6 9.9 82 1.5 SSE 7 9 4 5 1023.8 1023.8 0.0
21/07:30pm 13.3 10.7 9.5 78 1.9 S 13 20 7 11 1023.5 1023.5 0.0
21/07:00pm 14.0 12.4 8.8 71 2.6 S 7 9 4 5 1023.2 1023.2 0.0
21/06:30pm 14.3 11.2 8.7 69 2.8 SW 15 20 8 11 1023.0 1023.0 0.0
21/06:00pm 14.2 11.1 8.8 70 2.7 SSW 15 20 8 11 1023.0 1023.0 0.0
21/05:30pm 14.5 10.6 9.3 71 2.7 SSW 20 26 11 14 1022.8 1022.8 0.0
21/05:00pm 16.0 11.7 8.0 59 4.0 WSW 20 28 11 15 1022.4 1022.4 0.0
21/04:30pm 15.8 10.2 7.3 57 4.2 WSW 26 33 14 18 1022.3 1022.3 0.0
21/04:00pm 16.3 12.0 8.0 58 4.2 SW 20 28 11 15 1022.0 1022.0 0.0
21/03:30pm 17.0 12.0 6.5 50 5.2 SW 22 30 12 16 1021.9 1021.9 0.0
21/03:00pm 17.7 12.8 6.9 49 5.4 SSW 22 32 12 17 1021.8 1021.8 0.0
21/02:30pm 17.0 12.4 6.5 50 5.2 SW 20 30 11 16 1022.1 1022.1 0.0
21/02:00pm 16.8 11.3 6.0 49 5.2 SW 24 32 13 17 1022.2 1022.2 0.0
21/01:30pm 16.3 12.7 8.3 59 4.1 SW 17 22 9 12 1022.3 1022.3 0.0
21/01:00pm 16.1 11.4 7.8 58 4.2 SW 22 28 12 15 1022.4 1022.4 0.0
21/12:30pm 16.6 12.2 7.3 54 4.7 SW 20 30 11 16 1022.4 1022.4 0.0
21/12:00pm 16.6 11.8 7.3 54 4.6 SW 22 30 12 16 1022.6 1022.6 0.0
21/11:30am 16.5 11.9 6.6 52 4.9 SW 20 30 11 16 1022.5 1022.5 0.0
21/11:00am 16.2 11.9 7.2 55 4.5 SSW 19 30 10 16 1022.7 1022.7 0.0
21/10:30am 15.2 13.3 8.9 66 3.2 SSW 9 15 5 8 1022.9 1022.9 0.0
21/10:00am 15.1 14.0 8.6 65 3.3 SSE 4 9 2 5 1022.8 1022.8 0.0
21/09:30am 13.3 11.5 8.0 70 2.6 SE 7 11 4 6 1023.0 1023.0 0.0
21/09:00am 12.6 11.0 8.9 78 1.9 E 7 13 4 7 1022.9 1022.9 4.4
21/08:30am 11.5 10.2 9.8 89 0.9 ENE 7 9 4 5 1022.7 1022.7 4.4
21/08:00am 10.4 9.1 9.3 93 0.5 NNE 6 7 3 4 1022.5 1022.5 4.4
21/07:30am 8.6 6.7 7.5 93 0.5 NE 7 11 4 6 1022.2 1022.2 4.4
21/07:00am 7.6 6.5 6.7 94 0.4 N 2 7 1 4 1022.0 1022.0 4.4
21/06:30am 6.7 4.0 5.7 93 0.4 N 9 13 5 7 1021.7 1021.7 4.4
21/06:00am 6.7 5.3 5.7 93 0.4 NE 2 7 1 4 1021.5 1021.5 4.4
21/05:30am 6.4 5.0 5.4 93 0.4 N 2 7 1 4 1021.2 1021.2 4.4
21/05:00am 6.6 4.3 5.6 93 0.4 ENE 7 9 4 5 1020.9 1020.9 4.4
21/04:30am 6.0 3.5 4.8 92 0.5 N 7 9 4 5 1020.7 1020.7 4.4
21/04:00am 6.3 4.1 5.3 93 0.4 N 6 7 3 4 1020.6 1020.5 4.4
21/03:30am 5.9 4.3 4.7 92 0.5 NE 2 6 1 3 1020.6 1020.5 4.4
21/03:00am 6.6 5.6 5.4 92 0.5 CALM 0 6 0 3 1020.5 1020.4 4.4
21/02:30am 7.1 5.4 5.9 92 0.5 NW 4 7 2 4 1020.7 1020.7 4.4
21/02:00am 7.2 5.0 6.0 92 0.5 NW 7 11 4 6 1020.9 1020.9 4.4
21/01:30am 6.7 5.6 5.2 90 0.7 CALM 0 0 0 0 1020.9 1020.9 4.4
21/01:00am 7.3 6.3 5.8 90 0.7 CALM 0 0 0 0 1020.9 1020.9 4.4
21/12:30am 7.9 7.0 6.2 89 0.8 CALM 0 0 0 0 1020.8 1020.8 4.4
21/12:00am 9.7 7.9 8.0 89 0.8 SW 7 11 4 6 1021.1 1021.1 4.4
 
Date/Time
WST
Temp
°C
App
Temp
°C
Dew
Point
°C
Rel
Hum
%
Delta-T
°C
Wind Press
QNH
hPa
Press
MSL
hPa
Rain since
9am
mm
Dir  Spd
km/h
Gust
km/h
Spd
kts
Gust
kts
20/11:30pm 9.1 7.4 7.5 90 0.8 WSW 6 9 3 5 1021.0 1021.0 4.4
20/11:00pm 9.0 6.7 7.6 91 0.7 NNW 9 13 5 7 1021.0 1021.0 4.4
20/10:30pm 9.6 8.8 8.0 90 0.8 S 2 7 1 4 1020.8 1020.8 4.2
20/10:00pm 10.7 9.2 9.0 89 0.8 S 7 11 4 6 1020.9 1020.9 4.2
20/09:30pm 11.1 6.8 9.4 89 0.9 S 22 30 12 16 1021.1 1021.1 4.2
20/09:00pm 11.4 8.5 9.7 89 0.9 SSW 15 22 8 12 1021.1 1021.1 4.0
20/08:30pm 11.3 7.6 9.6 89 0.9 SW 19 26 10 14 1021.0 1021.0 3.4
20/08:00pm 11.3 9.1 9.2 87 1.0 SSW 11 15 6 8 1020.7 1020.7 2.4
20/07:30pm 12.8 7.7 7.7 71 2.5 SW 24 35 13 19 1020.5 1020.4 1.8
20/07:00pm 12.8 8.1 7.9 72 2.4 SW 22 35 12 19 1020.1 1020.0 1.8
20/06:30pm 12.8 8.4 7.5 70 2.6 SW 20 26 11 14 1019.5 1019.4 1.8
20/06:00pm 13.2 8.0 7.2 67 2.9 SW 24 33 13 18 1019.3 1019.2 1.8
20/05:30pm 13.8 8.1 8.4 70 2.7 SW 28 35 15 19 1018.9 1018.8 1.8
20/05:00pm 14.7 9.2 9.3 70 2.8 WSW 28 41 15 22 1018.5 1018.4 1.8
20/04:30pm 12.9 6.7 9.2 78 1.9 SW 32 41 17 22 1018.7 1018.6 1.8
20/04:00pm 12.6 7.7 10.1 85 1.3 SW 26 35 14 19 1018.3 1018.2 1.8
20/03:31pm 14.9 7.9 8.4 65 3.3 SW 35 54 19 29 1018.0 1017.9 0.6
20/03:30pm 15.0 7.6 8.3 64 3.4 SW 37 54 20 29 1017.9 1017.8 0.6
20/03:17pm 15.6 10.1 9.1 65 3.3 SW 28 48 15 26 1017.8 1017.7 0.6
20/03:00pm 14.1 9.8 10.9 81 1.7 WSW 24 32 13 17 1018.0 1017.9 0.6
20/02:35pm 16.8 8.2 6.6 51 5.0 WSW 41 59 22 32 1017.5 1017.4 0.2
20/02:30pm 16.8 7.8 6.6 51 5.0 WSW 43 56 23 30 1017.4 1017.3 0.2
20/02:21pm 16.5 7.9 6.3 51 5.0 WSW 41 59 22 32 1017.3 1017.2 0.2
20/02:00pm 17.0 7.3 5.9 48 5.4 WSW 46 61 25 33 1017.2 1017.1 0.2
20/01:30pm 16.5 9.7 9.2 62 3.8 WSW 35 56 19 30 1017.4 1017.3 0.2
20/01:00pm 15.9 8.3 7.7 58 4.1 WSW 37 56 20 30 1017.5 1017.4 0.2
20/12:30pm 13.9 5.3 8.1 68 2.9 WSW 43 63 23 34 1017.7 1017.6 0.2
20/12:13pm 16.3 8.2 7.0 54 4.6 WSW 39 59 21 32 1017.3 1017.2 0.0
20/12:00pm 16.0 9.2 9.2 64 3.5 WSW 35 54 19 29 1017.4 1017.3 0.0
20/11:31am 15.6 9.4 7.9 60 3.9 WSW 30 48 16 26 1017.4 1017.3 0.0
20/11:30am 15.4 9.7 8.2 62 3.6 WSW 28 44 15 24 1017.4 1017.3 0.0
20/11:00am 14.7 7.5 7.7 63 3.5 WSW 35 67 19 36 1017.5 1017.4 0.0
20/10:32am 13.8 5.1 8.4 70 2.7 WSW 44 63 24 34 1017.3 1017.2 0.0
20/10:30am 13.2 3.9 7.4 68 2.8 WSW 46 63 25 34 1017.3 1017.2 0.0
20/10:00am 15.5 8.6 9.0 65 3.3 SW 35 48 19 26 1016.9 1016.9 0.0
20/09:30am 14.7 7.3 8.4 66 3.2 WSW 37 52 20 28 1016.8 1016.8 0.0
20/09:21am 14.2 7.6 7.7 65 3.2 WSW 32 52 17 28 1016.8 1016.8 0.0
20/09:00am 14.1 9.7 10.3 78 2.0 WSW 24 35 13 19 1016.6 1016.6 11.8
20/08:40am 11.5 4.9 8.5 82 1.5 WSW 33 52 18 28 1016.6 1016.6 11.8
20/08:30am 11.6 3.8 8.1 79 1.7 WSW 39 54 21 29 1016.8 1016.8 11.6
20/08:29am 11.7 3.8 8.0 78 1.8 WSW 39 54 21 29 1016.7 1016.7 11.4
20/08:00am 12.6 7.1 7.7 72 2.4 SW 26 35 14 19 1016.1 1016.1 10.8
20/07:30am 12.1 6.9 7.2 72 2.4 WSW 24 33 13 18 1015.6 1015.6 10.8
20/07:00am 10.9 7.6 8.1 83 1.4 WSW 15 20 8 11 1015.1 1015.1 10.8
20/06:30am 10.2 4.2 7.1 81 1.5 WSW 28 33 15 18 1014.8 1014.8 10.8
20/06:07am 10.6 4.5 6.7 77 1.8 WSW 28 72 15 39 1014.9 1014.9 10.6
20/06:00am 10.4 5.5 6.7 78 1.7 WSW 22 28 12 15 1014.6 1014.6 10.4
20/05:30am 10.1 5.1 6.6 79 1.6 W 22 32 12 17 1014.4 1014.4 10.4
20/05:00am 9.9 3.7 6.1 77 1.8 W 28 39 15 21 1014.1 1014.1 10.2
20/04:30am 9.7 2.9 7.1 84 1.2 WSW 32 41 17 22 1014.0 1014.0 9.6
20/04:12am 9.7 5.2 7.1 84 1.2 WSW 20 39 11 21 1014.2 1014.2 9.4
20/04:00am 9.7 6.1 6.8 82 1.4 W 15 24 8 13 1013.8 1013.8 8.4
20/03:32am 10.7 4.4 5.5 70 2.4 WSW 28 57 15 31 1014.0 1014.0 6.8
20/03:30am 10.7 4.6 5.0 68 2.6 WSW 26 33 14 18 1013.9 1013.9 6.8
20/03:00am 9.5 6.1 6.0 79 1.6 WSW 13 22 7 12 1013.9 1013.9 6.8
20/02:30am 9.9 4.2 4.9 71 2.3 W 24 33 13 18 1014.0 1014.0 6.6
20/02:18am 10.2 3.7 4.6 68 2.5 WSW 28 46 15 25 1013.9 1013.9 6.6
20/02:00am 9.4 4.6 5.4 76 1.8 W 20 28 11 15 1013.9 1013.9 6.6
20/01:30am 9.3 4.0 4.9 74 2.0 WSW 22 28 12 15 1014.2 1014.2 6.4
20/01:00am 9.5 3.1 5.3 75 1.9 WSW 28 43 15 23 1014.4 1014.4 6.4
20/12:30am 9.3 4.6 5.9 79 1.6 WSW 20 39 11 21 1014.6 1014.6 6.4
20/12:28am 9.2 5.0 5.8 79 1.6 W 17 39 9 21 1014.7 1014.7 6.4
20/12:00am 8.9 5.9 6.2 83 1.2 WSW 11 15 6 8 1014.5 1014.5 4.6
 
Date/Time
WST
Temp
°C
App
Temp
°C
Dew
Point
°C
Rel
Hum
%
Delta-T
°C
Wind Press
QNH
hPa
Press
MSL
hPa
Rain since
9am
mm
Dir  Spd
km/h
Gust
km/h
Spd
kts
Gust
kts
19/11:30pm 9.5 4.8 5.9 78 1.7 SW 20 28 11 15 1014.4 1014.4 4.6
19/11:00pm 9.6 5.5 6.1 79 1.6 WSW 17 22 9 12 1014.7 1014.7 4.4
19/10:30pm 9.3 3.1 6.0 80 1.5 SW 28 35 15 19 1014.7 1014.7 4.4
19/10:24pm 9.4 2.9 6.3 81 1.4 SW 30 39 16 21 1014.7 1014.7 4.4
19/10:00pm 9.1 1.2 6.2 82 1.3 WSW 37 63 20 34 1014.6 1014.6 4.4
19/09:53pm 9.1 1.4 5.5 78 1.6 WSW 35 63 19 34 1014.8 1014.8 4.2
19/09:51pm 9.3 2.9 5.3 76 1.8 WSW 28 57 15 31 1015.0 1015.0 3.8
19/09:30pm 9.7 6.0 6.4 80 1.5 WSW 15 20 8 11 1014.2 1014.2 2.2
19/09:00pm 9.6 1.1 5.0 73 2.1 WSW 39 69 21 37 1014.3 1014.3 2.2
19/08:55pm 9.6 -0.7 4.6 71 2.2 WSW 48 87 26 47 1014.4 1014.4 2.2
19/08:49pm 10.7 2.0 4.2 64 2.9 WSW 39 87 21 47 1014.2 1014.2 2.0
19/08:48pm 11.9 3.8 3.4 56 3.8 WSW 35 87 19 47 1014.2 1014.2 2.0
19/08:30pm 12.6 4.5 3.0 52 4.3 WSW 35 52 19 28 1013.8 1013.8 2.0
19/08:00pm 12.3 4.7 3.8 56 3.8 WSW 33 52 18 28 1013.5 1013.5 2.0
19/07:34pm 11.8 3.6 4.8 62 3.2 WSW 37 56 20 30 1013.3 1013.3 2.0
19/07:30pm 11.9 3.3 4.9 62 3.2 WSW 39 56 21 30 1013.3 1013.3 2.0
19/07:00pm 12.6 3.3 4.8 59 3.6 WSW 43 65 23 35 1012.9 1012.9 2.0
19/06:30pm 13.1 4.2 3.2 51 4.4 W 39 59 21 32 1012.3 1012.3 2.0
19/06:01pm 13.0 5.4 5.9 62 3.4 WSW 35 54 19 29 1012.3 1012.3 2.0
19/06:00pm 12.9 5.3 6.0 63 3.3 WSW 35 52 19 28 1012.3 1012.3 2.0
19/05:30pm 13.4 5.2 4.8 56 4.0 WSW 37 57 20 31 1012.0 1012.0 2.0
19/05:00pm 13.6 5.8 6.7 63 3.3 WSW 37 59 20 32 1011.6 1011.6 2.0
19/04:57pm 13.6 6.6 6.7 63 3.3 W 33 56 18 30 1011.6 1011.6 2.0
19/04:30pm 11.6 7.7 9.5 87 1.1 WNW 20 35 11 19 1011.7 1011.7 2.0
19/04:00pm 11.7 6.9 8.9 83 1.4 WNW 24 39 13 21 1011.5 1011.5 1.8
19/03:30pm 12.4 5.6 7.5 72 2.4 W 33 50 18 27 1011.0 1011.0 0.2
19/03:01pm 15.7 7.8 6.2 53 4.6 WSW 37 57 20 31 1010.4 1010.4 0.0
19/03:00pm 15.8 8.4 6.8 55 4.4 WSW 35 52 19 28 1010.4 1010.4 0.0
19/02:56pm 16.3 8.2 7.0 54 4.6 WSW 39 57 21 31 1010.4 1010.4 0.0
19/02:30pm 17.2 8.8 5.8 47 5.6 WSW 39 52 21 28 1010.2 1010.2 0.0
19/02:07pm 16.8 9.4 6.9 52 4.9 W 35 54 19 29 1010.4 1010.4 0.0
19/02:00pm 16.2 8.5 7.2 55 4.5 WSW 37 50 20 27 1010.4 1010.4 0.0
19/01:39pm 16.0 8.4 7.5 57 4.3 W 37 57 20 31 1010.2 1010.2 0.0
19/01:30pm 16.9 10.1 7.8 55 4.6 WSW 33 50 18 27 1010.0 1010.0 0.0
19/01:09pm 16.4 9.1 7.1 54 4.6 WSW 35 57 19 31 1010.0 1010.0 0.0
19/01:00pm 16.5 9.9 7.7 56 4.4 W 32 44 17 24 1010.1 1010.1 0.0
19/12:30pm 16.5 10.3 9.4 63 3.7 WSW 32 46 17 25 1010.3 1010.3 0.0
19/12:19pm 15.5 8.0 7.8 60 3.9 W 37 61 20 33 1010.3 1010.3 0.0
19/12:00pm 17.3 9.2 5.3 45 5.8 WSW 37 50 20 27 1010.4 1010.4 0.0
19/11:30am 16.7 8.5 5.0 46 5.6 WSW 37 48 20 26 1010.5 1010.5 0.0
19/11:12am 15.9 9.7 7.7 58 4.1 WSW 30 50 16 27 1010.4 1010.4 0.0
19/11:00am 16.2 9.3 8.7 61 3.9 WSW 35 46 19 25 1010.6 1010.6 0.0
19/10:30am 16.6 10.1 8.1 57 4.3 WSW 32 43 17 23 1010.7 1010.7 0.0

Other formats

Comma delimited format used in spreadsheet applications
http://www.bom.gov.au/fwo/IDW60801/IDW60801.95612.axf

JavaScript Object Notation format (JSON) in row-major order
http://www.bom.gov.au/fwo/IDW60801/IDW60801.95612.json

Data quality

Most of these data are generated automatically and are frequently updated. Quality checks on data are not normally performed. It is possible for incorrect values to appear. Refer to information at About Latest Weather Observations and please check the disclaimer before using these data.